Latest Coastal Weather Observations for Gabo Island

IDT60701

Issued at 10:52 am EDT Monday 30 March 2015 (issued every 10 minutes, with the page automatically refreshed every 10 minutes)

About coastal observations | Map of coastal stations | Coastal observations for TAS | Marine services | Other Formats
Station Details ID: 084016 Name: GABO ISLAND LIGHTHOUSE Lat: -37.57 Lon: 149.92 Height: 15.2 m
Data from the previous 72 hours. | See also: Recent months at Gabo Island
Date/Time
EDT
Temp

°C
Wind Pressure Rain
since 9am
mm
Weather Cloud Vis
km
Sea
Height
m
Swell
Dir
 
Speed
knots
Gust
knots
hPa Trend Height
m
Period
s
Dir
30/10:30am 17.0 SW 5 5 1025.1 - 0.0 - - - - - - -
30/10:00am 16.8 WSW 5 6 1025.0 - 0.0 - - - - - - -
30/09:30am 16.2 W 5 6 1024.9 - 0.0 - - - - - - -
30/09:00am 15.0 W 5 6 1024.6 - 0.0 Smoke Mostly clear 25 <0.5 1.0 - S
30/08:30am 14.6 W 4 5 1024.5 - 0.0 - - - - - - -
30/08:00am 13.5 NW 3 4 1024.2 - 0.0 - - - - - - -
30/07:30am 12.7 W 6 7 1023.9 - 0.0 - - - - - - -
30/07:00am 12.9 NW 5 6 1023.6 - 0.0 - - - - - - -
30/06:30am 12.8 WNW 7 7 1023.3 - 0.0 - - - - - - -
30/06:00am 12.7 WNW 7 8 1023.0 - 0.0 - - - - - - -
30/05:30am 12.4 W 7 8 1023.0 - 0.0 - - - - - - -
30/05:00am 12.8 W 7 8 1022.9 - 0.0 - - - - - - -
30/04:30am 12.9 W 7 7 1023.0 - 0.0 - - - - - - -
30/04:00am 13.4 WNW 7 8 1023.1 - 0.0 - - - - - - -
30/03:30am 13.6 WNW 7 8 1023.1 - 0.0 - - - - - - -
30/03:00am 13.9 WNW 8 9 1023.3 - 0.0 Haze Clear 25 <0.5 1.0 - S
30/02:30am 14.3 WNW 8 9 1023.6 - 0.0 - - - - - - -
30/02:00am 14.5 WNW 8 8 1023.7 - 0.0 - - - - - - -
30/01:30am 15.2 NW 7 8 1023.7 - 0.0 - - - - - - -
30/01:00am 14.9 NW 7 8 1023.8 - 0.0 - - - - - - -
30/12:30am 14.9 WNW 8 8 1023.8 - 0.0 - - - - - - -
30/12:00am 15.0 WNW 6 7 1023.9 - 0.0 - - - - - - -
 
Date/Time
EDT
Temp

°C
Wind Pressure Rain
since 9am
mm
Weather Cloud Vis
km
Sea
Height
m
Swell
Dir
 
Speed
knots
Gust
knots
hPa Trend Height
m
Period
s
Dir
29/11:30pm 15.3 WNW 7 8 1024.0 - 0.0 - - - - - - -
29/11:00pm 15.6 WNW 6 7 1024.1 - 0.0 - - - - - - -
29/10:30pm 15.7 WNW 6 7 1024.3 - 0.0 - - - - - - -
29/10:00pm 16.1 WNW 5 7 1024.2 - 0.0 - - - - - - -
29/09:30pm 16.3 SW 4 4 1023.9 - 0.0 - - - - - - -
29/09:00pm 17.4 S 5 6 1023.3 - 0.0 Haze Clear 25 <0.5 1.0 - S
29/08:30pm 17.4 S 4 6 1023.1 - 0.0 - - - - - - -
29/08:00pm 17.8 SSW 5 6 1022.7 - 0.0 - - - - - - -
29/07:30pm 17.5 S 5 5 1022.2 - 0.0 - - - - - - -
29/07:00pm 17.6 CALM 0 0 1021.8 - 0.0 - - - - - - -
29/06:30pm 18.7 S 4 5 1021.4 - 0.0 - - - - - - -
29/06:00pm 19.4 SSW 5 5 1021.2 - 0.0 - - - - - - -
29/05:30pm 19.9 S 6 8 1021.2 - 0.0 - - - - - - -
29/05:00pm 19.9 S 7 8 1021.0 - 0.0 - - - - - - -
29/04:30pm 20.2 SSE 7 9 1021.0 - 0.0 - - - - - - -
29/04:00pm 19.8 SSE 9 10 1021.0 - 0.0 - - - - - - -
29/03:30pm 20.2 S 10 11 1021.1 - 0.0 - - - - - - -
29/03:00pm 19.8 SSE 9 11 1021.1 - 0.0 - - - - - - -
29/02:30pm 19.8 SSE 7 8 1021.4 - 0.0 - - - - - - -
29/02:00pm 19.3 SSE 6 7 1021.5 - 0.0 - - - - - - -
29/01:30pm 18.9 S 5 6 1021.9 - 0.0 - - - - - - -
29/01:00pm 18.1 SSW 6 8 1022.6 - 0.0 - - - - - - -
29/12:30pm 17.7 SSW 8 9 1022.7 - 0.0 - - - - - - -
29/12:00pm 17.6 WSW 6 8 1022.5 - 0.0 - - - - - - -
29/11:30am 17.3 SW 9 10 1023.1 - 0.0 - - - - - - -
29/11:00am 17.2 WSW 7 9 1023.2 - 0.0 - - - - - - -
29/10:30am 16.7 W 10 12 1023.5 - 0.0 - - - - - - -
29/10:00am 16.3 W 9 11 1023.0 - 0.0 - - - - - - -
29/09:30am 15.0 W 10 12 1022.9 - 0.0 - - - - - - -
29/09:00am 14.2 W 9 11 1022.3 - 0.0 Fine Clear 30 <0.5 1.0 - S
29/08:30am 13.2 WNW 8 10 1022.1 - 0.0 - - - - - - -
29/08:00am 12.3 W 8 9 1021.8 - 0.0 - - - - - - -
29/07:30am 11.9 W 8 9 1021.5 - 0.0 - - - - - - -
29/07:00am 12.1 W 5 7 1021.2 - 0.0 - - - - - - -
29/06:30am 12.3 W 4 5 1020.9 - 0.0 - - - - - - -
29/06:00am 12.9 NW 5 5 1020.6 - 0.0 - - - - - - -
29/05:30am 12.5 N 6 6 1020.7 - 0.0 - - - - - - -
29/05:00am 12.7 N 6 6 1020.5 - 0.0 - - - - - - -
29/04:30am 12.6 N 6 7 1020.5 - 0.0 - - - - - - -
29/04:00am 12.2 N 6 7 1020.7 - 0.0 - - - - - - -
29/03:30am 12.6 N 5 6 1021.0 - 0.0 - - - - - - -
29/03:00am 13.3 NW 7 7 1021.3 - 0.0 - - - - - - -
29/02:30am 13.4 NW 7 8 1021.7 - 0.0 - - - - - - -
29/02:00am 13.9 NW 7 8 1021.9 - 0.0 - - - - - - -
29/01:30am 14.2 NW 7 9 1022.1 - 0.0 - - - - - - -
29/01:00am 13.8 NW 7 8 1022.4 - 0.0 - - - - - - -
29/12:30am 13.9 NW 7 9 1022.5 - 0.0 - - - - - - -
29/12:00am 13.8 NW 7 9 1022.7 - 0.0 - - - - - - -
 
Date/Time
EDT
Temp

°C
Wind Pressure Rain
since 9am
mm
Weather Cloud Vis
km
Sea
Height
m
Swell
Dir
 
Speed
knots
Gust
knots
hPa Trend Height
m
Period
s
Dir
28/11:30pm 14.2 WNW 7 8 1022.9 - 0.0 - - - - - - -
28/11:00pm 14.7 WNW 6 7 1023.1 - 0.0 - - - - - - -
28/10:30pm 14.6 WNW 7 9 1023.3 - 0.0 - - - - - - -
28/10:00pm 14.7 W 9 11 1023.4 - 0.0 - - - - - - -
28/09:30pm 14.6 NW 7 9 1023.4 - 0.0 - - - - - - -
28/09:00pm 15.0 W 7 9 1023.1 - 0.0 Fine Mostly clear 40 1 1.0 - S
28/08:30pm 15.6 W 8 11 1023.0 - 0.0 - - - - - - -
28/08:00pm 16.8 SW 12 14 1022.9 - 0.0 - - - - - - -
28/07:30pm 16.8 SW 13 17 1022.6 - 0.0 - - - - - - -
28/07:00pm 17.0 SW 15 20 1022.4 - 0.0 - - - - - - -
28/06:30pm 17.2 SW 17 20 1022.1 - 0.0 - - - - - - -
28/06:00pm 17.4 SW 19 22 1021.7 - 0.0 - - - - - - -
28/05:30pm 17.5 SW 21 23 1021.7 - 0.0 - - - - - - -
28/05:00pm 17.5 SSW 22 26 1021.6 - 0.0 - - - - - - -
28/04:30pm 17.5 SSW 23 26 1021.7 - 0.0 - - - - - - -
28/04:00pm 17.5 SSW 25 29 1021.8 - 0.0 - - - - - - -
28/03:30pm 17.7 SW 25 29 1021.8 - 0.0 - - - - - - -
28/03:00pm 17.7 SW 25 28 1021.8 - 0.0 Fine Mostly clear 40 2 1.0 - S
28/02:30pm 17.5 SSW 25 29 1022.0 - 0.0 - - - - - - -
28/02:00pm 17.9 SW 23 26 1022.1 - 0.0 - - - - - - -
28/01:30pm 18.1 SW 22 26 1022.5 - 0.0 - - - - - - -
28/01:00pm 18.3 SW 20 23 1022.8 - 0.0 - - - - - - -
28/12:30pm 18.0 WSW 19 22 1023.1 - 0.0 - - - - - - -
28/12:00pm 17.6 WSW 19 24 1023.2 - 0.0 - - - - - - -
28/11:30am 16.8 WSW 19 23 1023.5 - 0.0 - - - - - - -
28/11:00am 16.2 WSW 17 22 1023.6 - 0.0 - - - - - - -
28/10:30am 15.5 WSW 18 23 1023.6 - 0.0 - - - - - - -
28/10:00am 15.2 W 19 24 1023.5 - 0.0 - - - - - - -
28/09:30am 14.7 WSW 18 23 1023.3 - 0.0 - - - - - - -
28/09:00am 14.2 W 20 26 1022.8 - 4.2 Distant precip. Mostly cloudy 15 2 1.0 - S
28/08:30am 14.0 W 21 26 1022.5 - 4.2 - - - - - - -
28/08:00am 13.9 W 20 26 1022.3 - 4.2 - - - - - - -
28/07:30am 13.4 W 22 27 1022.0 - 4.2 - - - - - - -
28/07:00am 13.5 WSW 19 24 1021.7 - 4.2 - - - - - - -
28/06:30am 12.9 WSW 20 25 1021.5 - 3.8 - - - - - - -
28/06:00am 12.8 W 14 23 1021.2 - 3.4 - - - - - - -
28/05:30am 12.8 W 15 19 1021.1 - 2.8 - - - - - - -
28/05:00am 12.8 W 21 25 1020.8 - 2.0 - - - - - - -
28/04:30am 12.9 W 21 26 1020.7 - 1.6 - - - - - - -
28/04:00am 13.3 W 25 31 1020.4 - 0.8 - - - - - - -
28/03:30am 13.3 W 28 33 1020.1 - 0.6 - - - - - - -
28/03:00am 14.1 WSW 21 26 1020.1 - 0.4 - - - - - - -
28/02:30am 14.6 WSW 26 34 1020.3 - 0.0 - - - - - - -
28/02:00am 14.4 W 25 31 1019.9 - 0.0 - - - - - - -
28/01:30am 14.0 W 26 33 1019.7 - 0.0 - - - - - - -
28/01:00am 14.3 W 27 33 1019.5 - 0.0 - - - - - - -
28/12:30am 14.6 W 27 34 1019.4 - 0.0 - - - - - - -
28/12:00am 14.1 W 21 27 1019.3 - 0.0 - - - - - - -
 
Date/Time
EDT
Temp

°C
Wind Pressure Rain
since 9am
mm
Weather Cloud Vis
km
Sea
Height
m
Swell
Dir
 
Speed
knots
Gust
knots
hPa Trend Height
m
Period
s
Dir
27/11:34pm 14.8 W 24 34 1019.3 - 0.0 - - - - - - -
27/11:30pm 15.0 W 24 31 1019.3 - 0.0 - - - - - - -
27/11:00pm 15.0 W 26 32 1019.2 - 0.0 - - - - - - -
27/10:39pm 15.2 W 24 36 1019.0 - 0.0 - - - - - - -
27/10:30pm 15.2 W 24 30 1019.0 - 0.0 - - - - - - -
27/10:00pm 15.5 WSW 26 33 1018.9 - 0.0 - - - - - - -
27/09:30pm 15.7 WSW 27 34 1018.4 - 0.0 - - - - - - -
27/09:00pm 16.3 WSW 32 41 1017.8 - 0.0 Fine Partly cloudy 15 3 3.0 - S
27/08:33pm 16.7 WSW 30 41 1017.6 - 0.0 - - - - - - -
27/08:30pm 16.8 WSW 29 36 1017.6 - 0.0 - - - - - - -
27/08:00pm 16.6 WSW 30 37 1017.1 - 0.0 - - - - - - -
27/07:30pm 16.5 W 32 42 1016.6 - 0.0 - - - - - - -
27/07:00pm 16.8 W 27 40 1016.4 - 0.0 - - - - - - -
27/06:50pm 17.0 W 27 37 1016.3 - 0.0 - - - - - - -
27/06:30pm 16.9 W 25 34 1015.9 - 0.0 - - - - - - -
27/06:00pm 17.0 W 31 39 1015.2 - 0.0 - - - - - - -
27/05:30pm 17.2 W 31 41 1015.2 - 0.0 - - - - - - -
27/05:00pm 17.3 W 33 45 1015.0 - 0.0 - - - - - - -
27/04:30pm 18.1 W 34 45 1014.7 - 0.0 - - - - - - -
27/04:01pm 18.2 W 27 37 1014.5 - 0.0 - - - - - - -
27/04:00pm 18.3 W 28 37 1014.5 - 0.0 - - - - - - -
27/03:37pm 17.3 W 28 38 1014.9 - 0.0 - - - - - - -
27/03:30pm 17.1 W 29 37 1015.1 - 0.0 - - - - - - -
27/03:01pm 18.5 W 28 38 1015.2 - 0.0 - - - - - - -
27/03:00pm 17.8 W 28 38 1015.1 - 0.0 Fine Mostly cloudy 30 3 1.0 - S
27/02:55pm 17.8 W 28 38 1015.2 - 0.0 - - - - - - -
27/02:30pm 17.3 W 28 37 1015.7 - 0.0 - - - - - - -
27/02:03pm 17.9 WSW 27 37 1015.7 - 0.0 - - - - - - -
27/02:00pm 17.6 WSW 28 37 1015.7 - 0.0 - - - - - - -
27/01:57pm 18.0 WSW 27 37 1015.8 - 0.0 - - - - - - -
27/01:30pm 18.3 WSW 29 36 1015.8 - 0.0 - - - - - - -
27/01:00pm 18.1 WSW 30 41 1015.7 - 0.0 - - - - - - -
27/12:30pm 18.4 W 35 45 1015.6 - 0.0 - - - - - - -
27/12:00pm 19.0 W 31 43 1015.3 - 0.0 - - - - - - -
27/11:55am 19.0 W 29 39 1015.5 - 0.0 - - - - - - -
27/11:51am 18.9 W 27 41 1015.5 - 0.0 - - - - - - -
27/11:41am 18.0 W 39 49 1015.5 - 0.0 - - - - - - -
27/11:30am 18.7 W 28 38 1015.5 - 0.0 - - - - - - -
27/11:17am 18.9 W 29 42 1015.4 - 0.0 - - - - - - -
27/11:00am 19.3 W 20 30 1015.5 - 0.0 - - - - - - -

Other Formats:

Comma delimited format used in spreadsheet applications
http://www.bom.gov.au/fwo/IDT60701/IDT60701.94933.axf

JavaScript Object Notation format (JSON) in row-major order
http://www.bom.gov.au/fwo/IDT60701/IDT60701.94933.json